Terminal Aerodrome Forecast
Issued by NWS Mt. Holly, NJ

Home | Current Version | Previous Version | Text Only | Print | Product List | Glossary On
Versions: 1 2 3 4 5 6 7 8 9 10 11 12 13 14 15 16 17 18 19
000
FTUS41 KPHI 292327
TAFABE
TAF
KABE 292327Z 3000/3024 18007KT P6SM VCSH SCT050 OVC150
      TEMPO 3001/3003 3SM -SHRA BR SCT025 OVC035
     FM300300 20003KT 4SM -SHRA BR BKN025 OVC050
      TEMPO 3004/3008 2SM +SHRA OVC010
     FM300800 25003KT 2SM SHRA BR OVC010
     FM301300 25005KT 4SM -SHRA BR OVC015
     FM301600 22005KT P6SM VCSH OVC030=

USA.gov is the U.S. government's official web portal to all federal, state and local government web resources and services.